createdAt,value
2023-04-09T00:00:17.672Z,10.67
2023-04-09T00:02:46.191Z,9.63
2023-04-09T00:05:14.265Z,10.00
2023-04-09T00:07:44.576Z,10.50
2023-04-09T00:10:13.015Z,8.48
2023-04-09T00:12:42.580Z,9.65
2023-04-09T00:15:15.031Z,8.11
2023-04-09T00:17:48.610Z,8.11
2023-04-09T00:20:17.368Z,8.73
2023-04-09T00:22:50.013Z,7.89
2023-04-09T00:25:18.988Z,8.39
2023-04-09T00:27:48.755Z,8.16
2023-04-09T00:30:20.437Z,10.80
2023-04-09T00:32:51.372Z,9.73
2023-04-09T00:35:20.878Z,10.73
2023-04-09T00:37:51.794Z,8.47
2023-04-09T00:40:20.060Z,9.88
2023-04-09T00:42:51.854Z,10.53
2023-04-09T00:45:21.098Z,9.35
2023-04-09T00:47:49.205Z,7.64
2023-04-09T00:50:17.893Z,10.38
2023-04-09T00:52:46.579Z,8.26
2023-04-09T00:55:16.840Z,6.45
2023-04-09T00:57:48.962Z,7.61
2023-04-09T01:00:18.856Z,8.29
2023-04-09T01:02:47.820Z,8.96
2023-04-09T01:05:16.581Z,9.55
2023-04-09T01:08:01.461Z,8.98
2023-04-09T01:10:32.109Z,8.09
2023-04-09T01:13:05.743Z,8.08
2023-04-09T01:15:37.218Z,7.95
2023-04-09T01:18:07.998Z,9.96
2023-04-09T01:20:37.415Z,9.33
2023-04-09T01:23:13.719Z,8.39
2023-04-09T01:25:46.836Z,9.85
2023-04-09T01:28:18.635Z,9.83
2023-04-09T01:30:49.614Z,9.58
2023-04-09T01:33:18.996Z,7.13
2023-04-09T01:35:48.203Z,8.82
2023-04-09T01:38:19.884Z,7.66
2023-04-09T01:40:48.261Z,7.89
2023-04-09T01:43:18.137Z,8.17
2023-04-09T01:45:46.625Z,5.75
2023-04-09T01:48:15.003Z,7.50
2023-04-09T01:50:43.162Z,7.53
2023-04-09T01:53:11.618Z,7.25
2023-04-09T01:55:39.857Z,7.04
2023-04-09T01:58:07.846Z,8.14
2023-04-09T02:00:39.876Z,7.85
2023-04-09T02:03:09.935Z,8.62
2023-04-09T02:05:40.400Z,8.56
2023-04-09T02:08:09.620Z,6.47
2023-04-09T02:10:37.841Z,8.40
2023-04-09T02:13:06.437Z,8.42
2023-04-09T02:15:34.730Z,8.37
2023-04-09T02:18:04.870Z,6.26
2023-04-09T02:20:33.018Z,8.29
2023-04-09T02:23:01.192Z,7.00
2023-04-09T02:25:29.199Z,6.18
2023-04-09T02:27:57.238Z,7.91
2023-04-09T02:30:25.603Z,8.88
2023-04-09T02:32:53.735Z,8.25
2023-04-09T02:35:25.553Z,7.82
2023-04-09T02:37:53.650Z,8.28
2023-04-09T02:40:22.392Z,8.15
2023-04-09T02:42:56.784Z,5.23
2023-04-09T02:45:25.195Z,6.57
2023-04-09T02:47:53.906Z,8.77
2023-04-09T02:50:26.936Z,6.36
2023-04-09T02:52:56.919Z,6.12
2023-04-09T02:55:25.372Z,7.27
2023-04-09T02:57:53.788Z,8.68
2023-04-09T03:00:22.245Z,7.92
2023-04-09T03:02:50.577Z,5.33
2023-04-09T03:05:19.024Z,6.41
2023-04-09T03:07:49.743Z,7.62
2023-04-09T03:10:18.217Z,7.85
2023-04-09T03:12:48.337Z,7.10
2023-04-09T03:15:16.924Z,5.89
2023-04-09T03:17:45.076Z,7.75
2023-04-09T03:20:13.381Z,7.87
2023-04-09T03:22:41.916Z,7.72
2023-04-09T03:25:12.318Z,7.81
2023-04-09T03:27:40.541Z,7.69
2023-04-09T03:30:09.864Z,7.31
2023-04-09T03:32:38.040Z,7.67
2023-04-09T03:35:07.117Z,5.70
2023-04-09T03:37:35.095Z,7.32
2023-04-09T03:40:04.154Z,7.89
2023-04-09T03:42:35.169Z,6.94
2023-04-09T03:45:26.312Z,8.22
2023-04-09T03:47:56.794Z,7.30
2023-04-09T03:50:26.174Z,7.65
2023-04-09T03:52:54.544Z,6.59
2023-04-09T03:55:22.929Z,5.83
2023-04-09T03:57:52.753Z,7.35
2023-04-09T04:00:21.002Z,7.35
2023-04-09T04:02:49.407Z,5.45
2023-04-09T04:05:20.518Z,6.42
2023-04-09T04:07:48.996Z,7.25
2023-04-09T04:10:17.273Z,7.95
2023-04-09T04:12:45.730Z,7.53
2023-04-09T04:15:15.218Z,7.56
2023-04-09T04:17:43.921Z,6.43
2023-04-09T04:22:39.384Z,7.88
2023-04-09T04:25:07.573Z,7.84
2023-04-09T04:27:35.396Z,7.83
2023-04-09T04:30:03.023Z,7.84
2023-04-09T04:32:32.198Z,7.83
2023-04-09T04:34:59.843Z,7.78
2023-04-09T04:37:27.702Z,7.75
2023-04-09T04:39:55.343Z,7.68
2023-04-09T04:42:23.337Z,7.68
2023-04-09T04:44:50.953Z,7.67
2023-04-09T04:47:19.430Z,7.61
2023-04-09T04:49:48.458Z,7.62
2023-04-09T04:52:17.788Z,7.59
2023-04-09T04:54:45.524Z,7.62
2023-04-09T04:57:13.327Z,7.63
2023-04-09T04:59:41.300Z,7.65
2023-04-09T05:02:09.206Z,7.68
2023-04-09T05:04:37.115Z,7.68
2023-04-09T05:07:06.351Z,7.67
2023-04-09T05:09:33.987Z,7.69
2023-04-09T05:12:01.751Z,7.70
2023-04-09T05:14:29.417Z,7.71
2023-04-09T05:16:57.232Z,7.69
2023-04-09T05:19:24.936Z,7.74
2023-04-09T05:21:52.706Z,7.54
2023-04-09T05:24:21.834Z,7.75
2023-04-09T05:26:49.487Z,7.78
2023-04-09T05:29:17.667Z,7.80
2023-04-09T05:31:45.611Z,7.83
2023-04-09T05:34:13.362Z,7.90
2023-04-09T05:36:41.219Z,7.96
2023-04-09T05:39:08.987Z,8.03
2023-04-09T05:41:38.705Z,8.07
2023-04-09T05:44:07.898Z,8.13
2023-04-09T05:46:35.632Z,8.18
2023-04-09T05:49:03.489Z,8.24
2023-04-09T05:51:31.268Z,8.32
2023-04-09T05:53:59.284Z,8.40
2023-04-09T05:56:28.000Z,8.51
2023-04-09T05:58:57.208Z,8.59
2023-04-09T06:01:25.026Z,8.72
2023-04-09T06:03:55.312Z,8.87
2023-04-09T06:06:24.926Z,9.14
2023-04-09T06:08:52.751Z,9.43
2023-04-09T06:11:21.302Z,9.85
2023-04-09T06:13:49.085Z,10.31
2023-04-09T06:16:18.146Z,10.86
2023-04-09T06:18:49.535Z,11.41
2023-04-09T06:21:17.418Z,11.87
2023-04-09T06:23:45.056Z,12.41
2023-04-09T06:26:12.805Z,12.86
2023-04-09T06:28:40.444Z,13.32
2023-04-09T06:31:09.316Z,13.73
2023-04-09T06:33:38.361Z,14.19
2023-04-09T06:36:06.778Z,14.62
2023-04-09T06:38:34.472Z,15.00
2023-04-09T06:41:02.300Z,15.41
2023-04-09T06:43:29.938Z,15.77
2023-04-09T06:45:57.923Z,16.24
2023-04-09T06:48:25.617Z,16.65
2023-04-09T06:50:54.853Z,17.03
2023-04-09T06:53:22.785Z,17.43
2023-04-09T06:55:51.273Z,17.83
2023-04-09T06:58:18.957Z,18.20
2023-04-09T07:00:46.784Z,18.76
2023-04-09T07:03:15.515Z,19.09
2023-04-09T07:05:43.474Z,19.40
2023-04-09T07:08:12.934Z,19.67
2023-04-09T07:10:40.813Z,19.71
2023-04-09T07:13:08.648Z,19.88
2023-04-09T07:15:36.719Z,19.99
2023-04-09T10:48:21.937Z,30.20
2023-04-09T10:50:51.835Z,29.39
2023-04-09T10:54:02.758Z,26.58
2023-04-09T10:57:06.250Z,27.61
2023-04-09T11:04:02.105Z,31.14
2023-04-09T11:06:30.075Z,32.91
2023-04-09T11:09:15.291Z,30.53
2023-04-09T11:11:55.808Z,29.92
2023-04-09T11:14:40.753Z,28.40
2023-04-09T11:17:17.619Z,27.46
2023-04-09T11:19:51.430Z,26.12
2023-04-09T11:22:19.365Z,26.86
2023-04-09T11:24:47.845Z,25.23
2023-04-09T11:27:20.019Z,23.67
2023-04-09T11:29:53.200Z,24.92
2023-04-09T11:32:26.155Z,24.03
2023-04-09T11:35:48.736Z,22.30
2023-04-09T11:38:17.205Z,24.71
2023-04-09T11:40:56.056Z,26.50
2023-04-09T11:44:05.016Z,26.51
2023-04-09T11:46:36.680Z,26.70
2023-04-09T11:49:05.994Z,27.30
2023-04-09T11:51:35.453Z,25.82
2023-04-09T11:54:03.714Z,24.87
2023-04-09T11:56:32.498Z,23.82
2023-04-09T11:59:00.310Z,24.21
2023-04-09T12:01:32.396Z,23.23
2023-04-09T12:04:00.746Z,23.19
2023-04-09T12:06:30.453Z,21.92
2023-04-09T12:08:58.815Z,22.63
2023-04-09T12:11:29.283Z,22.95
2023-04-09T12:14:01.481Z,20.62
2023-04-09T12:16:31.516Z,21.80
2023-04-09T12:19:02.372Z,21.99
2023-04-09T12:21:50.180Z,22.42
2023-04-09T12:24:18.357Z,20.43
2023-04-09T12:26:46.383Z,22.33
2023-04-09T12:29:15.159Z,22.43
2023-04-09T12:31:43.250Z,21.65
2023-04-09T12:34:11.070Z,22.37
2023-04-09T12:36:39.692Z,21.56
2023-04-09T12:39:09.970Z,22.16
2023-04-09T12:41:39.299Z,21.87
2023-04-09T12:44:07.695Z,21.88
2023-04-09T12:46:35.655Z,22.29
2023-04-09T12:49:04.369Z,19.59
2023-04-09T12:51:32.731Z,21.56
2023-04-09T12:54:00.894Z,21.35
2023-04-09T12:56:30.278Z,21.36
2023-04-09T12:58:58.171Z,20.35
2023-04-09T13:01:26.030Z,21.77
2023-04-09T13:03:54.380Z,21.40
2023-04-09T13:06:23.229Z,22.07
2023-04-09T13:08:51.570Z,20.00
2023-04-09T13:11:19.435Z,21.47
2023-04-09T13:13:48.700Z,21.47
2023-04-09T13:16:18.479Z,22.43
2023-04-09T13:18:46.294Z,21.35
2023-04-09T13:21:18.848Z,22.30
2023-04-09T13:23:46.731Z,22.75
2023-04-09T13:26:14.578Z,23.06
2023-04-09T13:28:42.430Z,23.10
2023-04-09T13:31:12.044Z,23.62
2023-04-09T13:33:40.738Z,23.80
2023-04-09T13:36:08.978Z,23.31
2023-04-09T13:38:36.952Z,21.60
2023-04-09T13:41:05.018Z,22.46
2023-04-09T13:43:32.835Z,22.48
2023-04-09T13:46:00.845Z,20.17
2023-04-09T13:48:30.119Z,20.34
2023-04-09T13:50:58.134Z,21.04
2023-04-09T13:53:26.149Z,20.06
2023-04-09T13:55:54.010Z,21.93
2023-04-09T13:58:23.575Z,22.10
2023-04-09T14:00:51.376Z,21.86
2023-04-09T14:03:19.525Z,21.17
2023-04-09T14:05:49.925Z,21.21
2023-04-09T14:08:17.811Z,22.27
2023-04-09T14:10:45.624Z,22.24
2023-04-09T14:13:13.848Z,21.78
2023-04-09T14:15:41.991Z,21.97
2023-04-09T14:18:10.216Z,21.77
2023-04-09T14:20:38.458Z,22.27
2023-04-09T14:23:07.969Z,20.00
2023-04-09T14:25:35.816Z,21.81
2023-04-09T14:28:03.935Z,21.85
2023-04-09T14:30:31.725Z,21.59
2023-04-09T14:33:00.049Z,21.22
2023-04-09T14:35:27.889Z,21.66
2023-04-09T14:37:56.794Z,21.47
2023-04-09T14:40:25.952Z,20.67
2023-04-09T14:42:53.835Z,19.71
2023-04-09T14:45:21.874Z,20.38
2023-04-09T14:47:49.913Z,20.64
2023-04-09T14:50:18.024Z,18.97
2023-04-09T14:55:15.565Z,20.17
2023-04-09T14:57:44.751Z,18.72
2023-04-09T15:00:13.585Z,18.61
2023-04-09T15:02:41.837Z,20.20
2023-04-09T15:05:10.997Z,19.58
2023-04-09T15:07:38.768Z,20.11
2023-04-09T15:10:07.713Z,20.13
2023-04-09T15:12:35.558Z,19.61
2023-04-09T15:15:08.616Z,20.43
2023-04-09T15:17:36.953Z,20.12
2023-04-09T15:20:05.553Z,19.38
2023-04-09T15:22:33.895Z,20.90
2023-04-09T15:25:02.061Z,20.97
2023-04-09T15:27:30.151Z,20.36
2023-04-09T15:29:58.308Z,20.85
2023-04-09T15:32:27.488Z,19.11
2023-04-09T15:34:55.674Z,19.63
2023-04-09T15:37:23.815Z,19.71
2023-04-09T15:39:53.412Z,19.39
2023-04-09T15:42:23.160Z,20.42
2023-04-09T15:44:51.614Z,20.55
2023-04-09T15:47:19.396Z,20.52
2023-04-09T15:49:48.742Z,19.21
2023-04-09T15:52:16.663Z,18.54
2023-04-09T15:54:44.833Z,20.52
2023-04-09T15:57:12.573Z,19.54
2023-04-09T15:59:40.691Z,20.63
2023-04-09T16:02:08.483Z,20.74
2023-04-09T16:04:36.506Z,18.46
2023-04-09T16:07:06.117Z,20.08
2023-04-09T16:09:34.046Z,20.83
2023-04-09T16:12:01.875Z,20.76
2023-04-09T16:14:30.362Z,20.71
2023-04-09T16:16:58.193Z,20.15
2023-04-09T16:22:09.977Z,20.60
2023-04-09T17:49:24.924Z,17.46
2023-04-09T17:52:19.209Z,15.65
2023-04-09T18:53:42.094Z,13.30
2023-04-09T19:01:07.259Z,15.92
2023-04-09T19:13:04.121Z,12.51
2023-04-09T19:15:49.236Z,14.95
2023-04-09T19:19:19.119Z,15.40
2023-04-09T19:51:25.717Z,13.41
2023-04-09T19:53:53.659Z,14.50
2023-04-09T19:59:40.001Z,13.89
2023-04-09T20:02:08.077Z,11.67
2023-04-09T20:04:38.209Z,12.87
2023-04-09T20:07:28.293Z,13.16
2023-04-09T20:14:00.358Z,11.79
2023-04-09T20:16:30.295Z,11.33
2023-04-09T20:20:03.207Z,12.80
2023-04-09T20:22:33.103Z,12.84
2023-04-09T20:25:21.446Z,14.65
2023-04-09T20:27:49.894Z,12.67
2023-04-09T20:30:33.050Z,14.45
2023-04-09T20:33:03.354Z,13.47
2023-04-09T20:36:04.673Z,14.53
2023-04-09T20:38:35.602Z,14.39
2023-04-09T20:41:06.604Z,12.02
2023-04-09T20:43:39.254Z,12.66
2023-04-09T20:46:07.323Z,14.34
2023-04-09T20:49:09.887Z,14.37
2023-04-09T20:51:37.925Z,11.91
2023-04-09T20:54:07.412Z,11.97
2023-04-09T20:56:35.512Z,13.01
2023-04-09T20:59:03.580Z,13.29
2023-04-09T21:02:20.180Z,14.33
2023-04-09T21:04:48.241Z,14.31
2023-04-09T21:07:16.202Z,13.07
2023-04-09T21:09:45.361Z,13.29
2023-04-09T21:12:13.300Z,13.11
2023-04-09T21:14:41.198Z,13.78
2023-04-09T21:17:18.290Z,12.30
2023-04-09T21:20:10.980Z,11.11
2023-04-09T21:23:01.356Z,11.03
2023-04-09T21:25:33.415Z,12.25
2023-04-09T21:28:43.341Z,11.72
2023-04-09T21:31:17.479Z,11.49
2023-04-09T21:33:45.479Z,11.16
2023-04-09T21:36:50.591Z,13.24
2023-04-09T21:39:42.564Z,12.90
2023-04-09T21:42:12.049Z,11.46
2023-04-09T21:44:40.129Z,13.95
2023-04-09T22:17:24.220Z,11.98
2023-04-09T22:20:16.818Z,10.87
2023-04-09T22:26:28.774Z,11.26
2023-04-09T22:29:40.742Z,12.99
2023-04-09T22:32:39.475Z,11.27
2023-04-09T22:41:52.211Z,10.20
2023-04-09T22:48:40.665Z,10.13
